Time;durP1;ratioP1;P1;durP2;ratioP2;P2;SDS_P1;SDS_P2;PMS_P1;PMS_P2;Temp;Humidity;BMP_temperature;BMP_pressure;BME280_temperature;BME280_humidity;BME280_pressure;Samples;Min_cycle;Max_cycle;Signal;HPM_P1;HPM_P2
2021/10/18 00:00:36;;;;;;;0.55;0.55;;;;;;;14.48;60.31;102214.19;5011606;28;20030;-88
2021/10/18 00:03:02;;;;;;;0.63;0.30;;;;;;;14.50;60.28;102229.25;5010191;28;20045;-87
2021/10/18 00:05:29;;;;;;;0.10;0.10;;;;;;;14.49;59.88;102227.53;5011983;28;20388;-87
2021/10/18 00:07:55;;;;;;;0.00;0.00;;;;;;;14.51;60.00;102235.50;5008054;28;20037;-88
2021/10/18 00:10:22;;;;;;;0.47;0.47;;;;;;;14.46;60.22;102232.88;5008075;28;20353;-89
2021/10/18 00:12:48;;;;;;;0.10;0.10;;;;;;;14.42;60.37;102239.19;5006786;28;20034;-88
2021/10/18 00:15:21;;;;;;;0.50;0.50;;;;;;;14.47;60.18;102237.31;5009471;28;20504;-87
2021/10/18 00:17:48;;;;;;;0.10;0.10;;;;;;;14.38;60.71;102234.78;5012638;28;20378;-88
2021/10/18 00:20:16;;;;;;;0.10;0.10;;;;;;;14.35;60.67;102234.81;5014392;28;20022;-89
2021/10/18 00:22:43;;;;;;;0.00;0.00;;;;;;;14.32;60.65;102237.56;5011800;28;20422;-89
2021/10/18 00:25:10;;;;;;;0.40;0.40;;;;;;;14.28;60.51;102239.38;5011031;28;20036;-88
2021/10/18 00:27:36;;;;;;;0.10;0.10;;;;;;;14.24;60.86;102241.19;5012542;28;20030;-88
2021/10/18 00:30:04;;;;;;;0.13;0.13;;;;;;;14.21;61.30;102249.22;5010264;28;20033;-88
2021/10/18 00:32:31;;;;;;;0.98;0.73;;;;;;;14.19;60.97;102245.69;5009593;28;20565;-88
2021/10/18 00:34:57;;;;;;;0.00;0.00;;;;;;;14.16;61.27;102251.06;5011318;28;20038;-88
2021/10/18 00:37:23;;;;;;;0.10;0.10;;;;;;;14.12;61.47;102251.09;5010003;28;20044;-89
2021/10/18 00:39:50;;;;;;;0.43;0.43;;;;;;;14.09;61.29;102249.38;5010126;28;20528;-88
2021/10/18 00:42:23;;;;;;;0.00;0.00;;;;;;;14.08;61.39;102259.16;5013069;28;20044;-86
2021/10/18 00:44:50;;;;;;;0.90;0.90;;;;;;;14.01;61.61;102257.47;5009318;28;20420;-88
2021/10/18 00:47:19;;;;;;;0.90;0.90;;;;;;;13.98;61.43;102262.84;5013150;28;20066;-88
2021/10/18 00:49:46;;;;;;;0.10;0.10;;;;;;;13.93;61.80;102264.66;5012952;28;20072;-88
2021/10/18 00:52:15;;;;;;;0.10;0.10;;;;;;;13.93;61.58;102263.78;5013477;28;20038;-89
2021/10/18 00:54:42;;;;;;;0.10;0.10;;;;;;;13.90;61.83;102254.91;5015918;28;20038;-88
2021/10/18 00:57:10;;;;;;;0.10;0.10;;;;;;;13.89;61.97;102261.16;5013258;28;20045;-88
2021/10/18 00:59:37;;;;;;;2.53;0.55;;;;;;;13.87;61.72;102254.97;5013941;28;20029;-88
2021/10/18 01:02:04;;;;;;;0.10;0.10;;;;;;;13.85;61.66;102258.53;5016004;28;20064;-88
2021/10/18 01:04:30;;;;;;;0.22;0.22;;;;;;;13.83;61.67;102255.00;5015111;28;20065;-89
2021/10/18 01:06:58;;;;;;;0.30;0.30;;;;;;;13.81;61.72;102249.69;5015038;28;20022;-89
2021/10/18 01:09:24;;;;;;;0.30;0.30;;;;;;;13.80;62.10;102252.38;5014640;28;20104;-88
2021/10/18 01:11:51;;;;;;;0.10;0.10;;;;;;;13.76;62.18;102254.19;5013442;28;20032;-88
2021/10/18 01:14:17;;;;;;;0.10;0.10;;;;;;;13.72;62.19;102255.09;5016274;28;20026;-89
2021/10/18 01:16:44;;;;;;;0.25;0.25;;;;;;;13.68;61.68;102251.63;5016040;28;20025;-89
2021/10/18 01:19:12;;;;;;;0.10;0.10;;;;;;;13.64;61.92;102249.88;5016277;28;20045;-89
2021/10/18 01:21:40;;;;;;;0.05;0.05;;;;;;;13.61;62.31;102251.66;5016233;28;20057;-89
2021/10/18 01:24:06;;;;;;;0.40;0.40;;;;;;;13.57;62.40;102245.50;5015980;28;20026;-87
2021/10/18 01:26:33;;;;;;;0.10;0.10;;;;;;;13.53;61.94;102255.31;5016370;28;20034;-88
2021/10/18 01:29:00;;;;;;;0.00;0.00;;;;;;;13.52;61.91;102253.56;5016443;28;20112;-88
2021/10/18 01:31:27;;;;;;;0.08;0.08;;;;;;;13.50;62.58;102244.69;5015909;28;20469;-89
2021/10/18 01:33:53;;;;;;;0.35;0.35;;;;;;;13.49;62.24;102250.03;5015834;28;20037;-88
2021/10/18 01:36:20;;;;;;;0.10;0.10;;;;;;;13.47;62.16;102250.06;5015716;28;20358;-89
2021/10/18 01:38:47;;;;;;;0.15;0.15;;;;;;;13.45;62.79;102235.84;5015516;28;20485;-88
2021/10/18 01:41:14;;;;;;;0.10;0.10;;;;;;;13.43;62.70;102235.88;5015683;28;20036;-88
2021/10/18 01:43:41;;;;;;;0.85;0.60;;;;;;;13.40;62.63;102238.56;5015393;28;20087;-89
2021/10/18 01:46:07;;;;;;;0.00;0.00;;;;;;;13.36;62.51;102241.25;5016113;28;20029;-88
2021/10/18 01:48:34;;;;;;;0.65;0.65;;;;;;;13.30;62.82;102225.34;5015414;28;20030;-88
2021/10/18 01:51:03;;;;;;;0.10;0.10;;;;;;;13.23;62.72;102230.72;5015406;28;20109;-86
2021/10/18 01:53:30;;;;;;;0.10;0.10;;;;;;;13.17;62.67;102228.09;5015024;28;20381;-89
2021/10/18 01:55:56;;;;;;;0.20;0.20;;;;;;;13.11;62.49;102231.69;5013807;28;20026;-88
2021/10/18 01:58:23;;;;;;;0.10;0.10;;;;;;;13.04;62.97;102229.09;5006238;28;20019;-89
2021/10/18 02:00:49;;;;;;;0.28;0.28;;;;;;;12.98;62.76;102229.16;5014973;28;20026;-89
2021/10/18 02:03:16;;;;;;;0.20;0.20;;;;;;;12.92;63.37;102222.06;5015392;28;20030;-88
2021/10/18 02:05:42;;;;;;;4.03;0.45;;;;;;;12.86;63.38;102225.69;5014376;28;20120;-88
2021/10/18 02:08:09;;;;;;;0.10;0.10;;;;;;;12.81;63.13;102224.84;5014976;28;20133;-89
2021/10/18 02:10:35;;;;;;;0.20;0.20;;;;;;;12.75;63.07;102228.41;5014748;28;20461;-89
2021/10/18 02:13:01;;;;;;;0.10;0.10;;;;;;;12.71;62.77;102231.09;5015059;28;20033;-88
2021/10/18 02:15:28;;;;;;;0.50;0.50;;;;;;;12.68;63.07;102233.78;5014669;28;20459;-89
2021/10/18 02:17:54;;;;;;;0.10;0.10;;;;;;;12.61;63.11;102231.16;5014983;28;20025;-89
2021/10/18 02:20:21;;;;;;;0.00;0.00;;;;;;;12.55;63.20;102225.88;5014848;28;20044;-88
2021/10/18 02:23:02;;;;;;;0.10;0.10;;;;;;;12.53;63.14;102230.31;5014837;28;20068;-88
2021/10/18 02:25:33;;;;;;;0.10;0.10;;;;;;;12.48;63.09;102223.28;5014966;28;20030;-88
2021/10/18 02:28:06;;;;;;;1.00;1.00;;;;;;;12.35;63.83;102218.03;5015149;28;20300;-88
2021/10/18 02:30:39;;;;;;;0.10;0.10;;;;;;;12.30;63.47;102218.03;5015032;28;20030;-87
2021/10/18 02:33:06;;;;;;;0.10;0.10;;;;;;;12.22;63.99;102209.22;5014767;28;20124;-88
2021/10/18 02:35:32;;;;;;;1.30;1.20;;;;;;;12.17;64.11;102205.69;5014180;28;20438;-88
2021/10/18 02:37:58;;;;;;;0.38;0.38;;;;;;;12.12;63.58;102204.84;5014537;28;20022;-89
2021/10/18 02:40:25;;;;;;;0.35;0.35;;;;;;;12.09;64.77;102205.75;5014427;28;20022;-89
2021/10/18 02:42:51;;;;;;;1.13;1.02;;;;;;;12.08;64.32;102205.75;5014284;28;20030;-89
2021/10/18 02:45:18;;;;;;;0.10;0.10;;;;;;;12.05;63.91;102203.09;5008914;28;20477;-89
2021/10/18 02:47:44;;;;;;;0.10;0.10;;;;;;;12.02;64.55;102205.78;5014118;28;20033;-88
2021/10/18 02:50:13;;;;;;;0.75;0.75;;;;;;;12.01;64.41;102210.19;5014605;28;20132;-91
2021/10/18 02:52:40;;;;;;;0.25;0.25;;;;;;;11.95;64.39;102208.44;5013055;28;20132;-86
2021/10/18 02:55:07;;;;;;;0.68;0.68;;;;;;;11.94;64.41;102205.78;5013448;28;20535;-88
2021/10/18 02:57:34;;;;;;;0.10;0.10;;;;;;;11.89;64.61;102208.47;5013764;28;20034;-88
2021/10/18 03:00:02;;;;;;;0.45;0.45;;;;;;;11.87;64.25;102214.66;5014021;28;20028;-89
2021/10/18 03:02:29;;;;;;;0.10;0.10;;;;;;;11.83;64.39;102208.47;5014575;28;20113;-88
2021/10/18 03:04:55;;;;;;;0.80;0.80;;;;;;;11.80;64.31;102216.44;5004761;28;20029;-89
2021/10/18 03:07:22;;;;;;;0.68;0.68;;;;;;;11.78;64.20;102219.09;5013082;28;20057;-89
2021/10/18 03:09:49;;;;;;;0.43;0.43;;;;;;;11.75;64.28;102220.88;5014176;28;20026;-89
2021/10/18 03:12:15;;;;;;;0.20;0.20;;;;;;;11.72;64.66;102218.25;5014091;28;20029;-89
2021/10/18 03:14:41;;;;;;;0.08;0.08;;;;;;;11.70;64.39;102217.34;5014361;28;20034;-89
2021/10/18 03:17:08;;;;;;;0.20;0.20;;;;;;;11.68;64.29;102222.69;5013534;28;20025;-91
2021/10/18 03:19:34;;;;;;;0.00;0.00;;;;;;;11.64;64.16;102219.16;5013817;28;20041;-91
2021/10/18 03:22:00;;;;;;;0.40;0.40;;;;;;;11.62;64.39;102218.25;5014122;28;20026;-90
2021/10/18 03:24:27;;;;;;;0.10;0.10;;;;;;;11.61;64.37;102216.50;5014219;28;20045;-90
2021/10/18 03:26:53;;;;;;;0.10;0.10;;;;;;;11.59;64.30;102220.03;5013979;28;20034;-90
2021/10/18 03:29:20;;;;;;;0.20;0.20;;;;;;;11.56;64.38;102218.25;5014125;28;20108;-90
2021/10/18 03:31:46;;;;;;;0.10;0.10;;;;;;;11.55;64.63;102226.25;5014732;28;20026;-90
2021/10/18 03:34:12;;;;;;;0.10;0.10;;;;;;;11.51;64.47;102222.69;5013744;28;20116;-90
2021/10/18 03:36:39;;;;;;;0.40;0.28;;;;;;;11.48;64.60;102228.03;5013488;28;20025;-89
2021/10/18 03:39:06;;;;;;;0.10;0.10;;;;;;;11.46;64.54;102224.47;5013111;28;20459;-88
2021/10/18 03:41:32;;;;;;;0.10;0.10;;;;;;;11.45;64.70;102228.94;5013298;28;20116;-88
2021/10/18 03:44:00;;;;;;;0.10;0.10;;;;;;;11.44;64.45;102226.25;5013536;28;20028;-91
2021/10/18 03:46:27;;;;;;;0.10;0.10;;;;;;;11.44;64.83;102231.56;5013452;28;20110;-91
2021/10/18 03:48:53;;;;;;;0.10;0.10;;;;;;;11.42;64.64;102228.03;5013093;28;20037;-91
2021/10/18 03:51:19;;;;;;;0.20;0.20;;;;;;;11.40;64.53;102229.81;5013450;28;20026;-90
2021/10/18 03:53:45;;;;;;;1.35;1.00;;;;;;;11.38;64.67;102227.16;5013093;28;20029;-87
2021/10/18 03:56:12;;;;;;;0.30;0.30;;;;;;;11.36;64.77;102223.59;5013411;28;20035;-87
2021/10/18 03:58:40;;;;;;;0.10;0.10;;;;;;;11.35;64.53;102227.16;5013311;28;20033;-88
2021/10/18 04:01:09;;;;;;;0.10;0.10;;;;;;;11.33;64.71;102227.16;5011463;28;20029;-89
2021/10/18 04:03:36;;;;;;;0.20;0.20;;;;;;;11.31;64.83;102231.59;5012453;28;20045;-87
2021/10/18 04:06:03;;;;;;;0.65;0.65;;;;;;;11.30;65.22;102232.47;5013058;28;20105;-88
2021/10/18 04:08:31;;;;;;;0.20;0.20;;;;;;;11.27;65.28;102229.81;5013306;28;20085;-87
2021/10/18 04:10:59;;;;;;;0.10;0.10;;;;;;;11.28;65.17;102233.38;5012517;28;20053;-88
2021/10/18 04:13:26;;;;;;;0.13;0.13;;;;;;;11.25;65.01;102234.25;5012368;28;20041;-87
2021/10/18 04:15:52;;;;;;;0.10;0.10;;;;;;;11.24;65.08;102229.81;5006383;28;20030;-88
2021/10/18 04:18:18;;;;;;;0.20;0.20;;;;;;;11.22;65.47;102226.28;5013180;28;20119;-87
2021/10/18 04:20:45;;;;;;;0.10;0.10;;;;;;;11.22;64.87;102220.09;5013424;28;20030;-88
2021/10/18 04:23:11;;;;;;;0.10;0.10;;;;;;;11.20;64.72;102228.03;5013021;28;20088;-88
2021/10/18 04:25:38;;;;;;;0.30;0.30;;;;;;;11.19;64.88;102220.09;5012343;28;20131;-87
2021/10/18 04:28:04;;;;;;;0.10;0.10;;;;;;;11.17;65.09;102228.06;5012916;28;20022;-88
2021/10/18 04:30:30;;;;;;;0.32;0.32;;;;;;;11.17;65.11;102220.97;5012632;28;20061;-88
2021/10/18 04:32:57;;;;;;;0.10;0.10;;;;;;;11.16;65.18;102216.56;5013020;28;20059;-88
2021/10/18 04:35:23;;;;;;;0.10;0.10;;;;;;;11.16;65.12;102221.88;5012247;28;20030;-87
2021/10/18 04:37:49;;;;;;;0.28;0.28;;;;;;;11.17;65.25;102222.75;5012775;28;20389;-88
2021/10/18 04:40:16;;;;;;;0.10;0.10;;;;;;;11.17;65.02;102222.75;5012945;28;20057;-88
2021/10/18 04:42:42;;;;;;;0.10;0.10;;;;;;;11.24;64.79;102224.53;5011599;28;20032;-88
2021/10/18 04:45:10;;;;;;;0.10;0.10;;;;;;;11.19;64.85;102221.00;5012758;28;20196;-87
2021/10/18 04:47:42;;;;;;;0.20;0.20;;;;;;;11.21;65.18;102219.19;5006620;28;20061;-88
2021/10/18 04:50:08;;;;;;;0.10;0.10;;;;;;;11.19;64.94;102226.31;5012613;28;20026;-88
2021/10/18 04:52:35;;;;;;;0.10;0.10;;;;;;;11.18;65.04;102235.13;5012597;28;20125;-88
2021/10/18 04:55:01;;;;;;;0.10;0.10;;;;;;;11.17;65.14;102238.66;5012683;28;20556;-87
2021/10/18 04:57:27;;;;;;;0.75;0.57;;;;;;;11.17;65.26;102249.28;5012063;28;20029;-87
2021/10/18 04:59:53;;;;;;;0.73;0.73;;;;;;;11.15;65.36;102246.63;5012592;28;20564;-90
2021/10/18 05:02:20;;;;;;;0.13;0.13;;;;;;;11.15;64.99;102248.38;5012381;28;20446;-90
2021/10/18 05:04:46;;;;;;;0.20;0.20;;;;;;;11.15;64.80;102251.03;5011292;28;20547;-89
2021/10/18 05:07:12;;;;;;;0.55;0.55;;;;;;;11.16;65.08;102255.47;5010820;28;20040;-90
2021/10/18 05:09:38;;;;;;;0.10;0.10;;;;;;;11.14;65.14;102249.25;5011889;28;20041;-90
2021/10/18 05:12:04;;;;;;;0.30;0.30;;;;;;;11.13;65.09;102258.13;5012568;28;20076;-89
2021/10/18 05:14:31;;;;;;;0.10;0.10;;;;;;;11.14;64.70;102254.56;5012940;28;20080;-89
2021/10/18 05:16:57;;;;;;;0.52;0.52;;;;;;;11.14;65.04;102254.56;5011993;28;20048;-89
2021/10/18 05:19:26;;;;;;;0.05;0.05;;;;;;;11.14;65.09;102249.25;5010943;28;20030;-90
2021/10/18 05:21:52;;;;;;;0.10;0.10;;;;;;;11.15;65.06;102251.03;5006431;28;20034;-89
2021/10/18 05:24:19;;;;;;;2.05;1.40;;;;;;;11.11;65.39;102247.50;5008784;28;20038;-90
2021/10/18 05:26:45;;;;;;;0.10;0.10;;;;;;;11.12;65.28;102245.75;5009942;28;20068;-90
2021/10/18 05:29:11;;;;;;;0.10;0.10;;;;;;;11.12;64.86;102245.75;5009456;28;20504;-88
2021/10/18 05:31:37;;;;;;;0.30;0.30;;;;;;;11.11;65.37;102246.63;5012331;28;20041;-87
2021/10/18 05:34:03;;;;;;;0.40;0.40;;;;;;;11.10;65.33;102245.75;5012673;28;20034;-87
2021/10/18 05:36:29;;;;;;;0.10;0.10;;;;;;;11.11;65.43;102250.16;5012266;28;20064;-87
2021/10/18 05:38:55;;;;;;;0.32;0.32;;;;;;;11.12;65.32;102261.66;5012311;28;20037;-85
2021/10/18 05:41:21;;;;;;;1.95;1.58;;;;;;;11.12;65.32;102259.00;5015854;28;20030;-85
2021/10/18 05:43:48;;;;;;;0.20;0.20;;;;;;;11.10;65.17;102258.13;5016010;28;20037;-86
2021/10/18 05:46:14;;;;;;;0.10;0.10;;;;;;;11.10;65.17;102259.00;5015717;28;20034;-87
2021/10/18 05:48:40;;;;;;;0.10;0.10;;;;;;;11.10;65.02;102252.81;5015395;28;20033;-85
2021/10/18 05:51:06;;;;;;;0.00;0.00;;;;;;;11.08;65.10;102249.25;5015693;28;20026;-84
2021/10/18 05:53:33;;;;;;;0.10;0.10;;;;;;;11.06;65.29;102251.03;5009413;28;20117;-85
2021/10/18 05:55:59;;;;;;;0.20;0.20;;;;;;;11.06;65.01;102251.91;5014016;28;20056;-86
2021/10/18 05:58:25;;;;;;;0.52;0.52;;;;;;;11.04;65.07;102248.41;5013392;28;20081;-87
2021/10/18 06:00:51;;;;;;;1.40;1.30;;;;;;;11.04;65.10;102247.50;5016430;28;20033;-86
2021/10/18 06:03:17;;;;;;;0.20;0.20;;;;;;;11.02;65.08;102239.53;5011692;28;20038;-86
2021/10/18 06:05:45;;;;;;;0.32;0.32;;;;;;;11.00;65.20;102247.50;5011870;28;20027;-82
2021/10/18 06:08:14;;;;;;;0.20;0.20;;;;;;;10.99;65.41;102248.38;5003352;28;20040;-84
2021/10/18 06:10:41;;;;;;;0.10;0.10;;;;;;;11.00;65.38;102257.22;5015428;28;20030;-85
2021/10/18 06:13:08;;;;;;;0.10;0.10;;;;;;;10.99;65.58;102253.69;5015254;28;20478;-85
2021/10/18 06:15:35;;;;;;;0.57;0.57;;;;;;;11.00;65.48;102257.22;5015906;28;20040;-85
2021/10/18 06:20:54;;;;;;;0.32;0.32;;;;;;;10.96;65.80;102245.72;5083522;27;20429;-85
2021/10/18 06:23:21;;;;;;;0.10;0.10;;;;;;;10.99;65.63;102250.13;5070408;28;20519;-83
2021/10/18 06:25:48;;;;;;;0.10;0.10;;;;;;;10.98;65.80;102257.22;5069929;28;20121;-83
2021/10/18 06:28:15;;;;;;;0.10;0.10;;;;;;;11.00;65.64;102262.53;5062085;28;20033;-84
2021/10/18 06:30:42;;;;;;;1.33;1.23;;;;;;;11.02;65.57;102262.53;5062063;28;20082;-85
2021/10/18 06:33:09;;;;;;;0.10;0.10;;;;;;;11.04;65.68;102260.75;5054557;28;20087;-84
2021/10/18 06:35:37;;;;;;;0.10;0.10;;;;;;;11.06;65.70;102266.97;5066516;28;20036;-84
2021/10/18 06:38:11;;;;;;;0.43;0.43;;;;;;;11.13;65.54;102256.34;5056633;28;20032;-85
2021/10/18 06:40:37;;;;;;;2.72;0.98;;;;;;;11.11;66.07;102255.44;5058781;28;20041;-85
2021/10/18 06:43:03;;;;;;;2.35;1.10;;;;;;;11.14;65.82;102251.91;5064264;28;20028;-84
2021/10/18 06:45:29;;;;;;;0.55;0.55;;;;;;;11.15;66.07;102241.31;5053621;28;20021;-83
2021/10/18 06:47:56;;;;;;;0.10;0.10;;;;;;;11.18;65.89;102251.06;5063858;28;20484;-84
2021/10/18 06:50:25;;;;;;;0.52;0.52;;;;;;;11.20;65.98;102270.47;5058793;28;20037;-85
2021/10/18 06:52:51;;;;;;;0.17;0.17;;;;;;;11.27;65.89;102272.25;5056196;28;20025;-85
2021/10/18 06:55:19;;;;;;;0.70;0.60;;;;;;;11.33;65.92;102271.38;5066199;28;20040;-85
2021/10/18 06:57:46;;;;;;;0.43;0.43;;;;;;;11.39;66.25;102270.50;5053715;28;20029;-86
2021/10/18 07:00:13;;;;;;;0.40;0.40;;;;;;;11.45;65.87;102270.47;5061878;28;20147;-85
2021/10/18 07:02:39;;;;;;;0.10;0.10;;;;;;;11.48;66.35;102276.69;5056148;28;20037;-85
2021/10/18 07:05:05;;;;;;;0.10;0.10;;;;;;;11.53;65.78;102279.34;5054334;28;20464;-83
2021/10/18 07:07:32;;;;;;;1.27;1.27;;;;;;;11.59;65.76;102283.75;5065639;28;20036;-85
2021/10/18 07:10:00;;;;;;;0.40;0.40;;;;;;;11.64;65.78;102282.88;5055159;28;20044;-85
2021/10/18 07:12:30;;;;;;;0.10;0.10;;;;;;;11.74;65.88;102278.44;5059554;28;20108;-86
2021/10/18 07:14:58;;;;;;;0.20;0.20;;;;;;;11.75;65.56;102279.28;5063134;28;20110;-85
2021/10/18 07:17:26;;;;;;;0.47;0.47;;;;;;;11.82;65.39;102281.06;5052528;28;20075;-85
2021/10/18 07:19:54;;;;;;;0.30;0.30;;;;;;;11.86;65.36;102276.63;5063961;28;20044;-86
2021/10/18 07:22:25;;;;;;;0.13;0.13;;;;;;;11.92;65.18;102282.78;5058026;28;20028;-85
2021/10/18 07:24:52;;;;;;;0.20;0.20;;;;;;;11.98;65.62;102293.44;5055979;28;20045;-86
2021/10/18 07:27:18;;;;;;;0.28;0.28;;;;;;;12.09;65.29;102297.88;5065644;28;20036;-86
2021/10/18 07:29:45;;;;;;;0.10;0.10;;;;;;;12.15;64.95;102305.81;5053223;28;20029;-86
2021/10/18 07:32:14;;;;;;;0.20;0.20;;;;;;;12.18;64.70;102308.44;5048524;28;20028;-86
2021/10/18 07:34:40;;;;;;;0.63;0.63;;;;;;;12.28;64.85;102312.84;5046408;28;20039;-86
2021/10/18 07:37:08;;;;;;;0.90;0.90;;;;;;;12.35;64.31;102307.50;5040259;28;20041;-86
2021/10/18 07:39:34;;;;;;;0.75;0.75;;;;;;;12.39;64.08;102310.16;5052029;28;20464;-86
2021/10/18 07:42:02;;;;;;;0.88;0.82;;;;;;;12.46;64.62;102305.66;5041670;28;20456;-85
2021/10/18 07:44:29;;;;;;;0.43;0.43;;;;;;;12.44;63.94;102300.38;5045649;28;20495;-85
2021/10/18 07:46:59;;;;;;;0.32;0.32;;;;;;;12.54;64.11;102303.00;5049472;28;20029;-85
2021/10/18 07:49:27;;;;;;;0.40;0.40;;;;;;;12.59;63.57;102304.72;5038761;28;20029;-86
2021/10/18 07:51:54;;;;;;;0.17;0.17;;;;;;;12.64;63.79;102298.53;5050013;28;20025;-86
2021/10/18 07:54:23;;;;;;;3.05;0.98;;;;;;;12.68;63.86;102292.28;5044247;28;20060;-86
2021/10/18 07:56:50;;;;;;;0.35;0.35;;;;;;;12.70;63.81;102295.84;5042392;28;20128;-86
2021/10/18 07:59:16;;;;;;;1.60;1.50;;;;;;;12.76;63.28;102296.66;5051560;28;20415;-85
2021/10/18 08:01:43;;;;;;;0.63;0.63;;;;;;;12.85;63.68;102309.03;5037636;28;20021;-85
2021/10/18 08:04:09;;;;;;;4.15;0.75;;;;;;;12.91;63.31;102301.00;5047582;28;20052;-86
2021/10/18 08:06:35;;;;;;;1.67;1.13;;;;;;;12.99;62.74;102306.28;5046142;28;20106;-85
2021/10/18 08:09:02;;;;;;;1.45;1.45;;;;;;;13.03;63.38;102310.69;5040432;28;20030;-84
2021/10/18 08:11:28;;;;;;;0.17;0.17;;;;;;;13.08;63.39;102308.00;5051467;28;20029;-84
2021/10/18 08:13:54;;;;;;;0.80;0.80;;;;;;;13.17;62.75;102302.63;5040099;28;20021;-85
2021/10/18 08:16:20;;;;;;;1.58;1.48;;;;;;;13.23;62.76;102299.91;5045596;28;20065;-85
2021/10/18 08:18:47;;;;;;;0.30;0.30;;;;;;;13.32;63.00;102295.38;5047113;28;20043;-84
2021/10/18 08:21:13;;;;;;;0.50;0.50;;;;;;;13.40;62.82;102301.59;5038740;28;20030;-85
2021/10/18 08:23:39;;;;;;;0.10;0.10;;;;;;;13.49;62.86;102301.50;5051241;28;20057;-83
2021/10/18 08:26:06;;;;;;;1.73;1.65;;;;;;;13.53;62.77;102300.59;5042339;28;20025;-84
2021/10/18 08:28:32;;;;;;;0.10;0.10;;;;;;;13.56;62.27;102297.00;5045555;28;20036;-86
2021/10/18 08:30:59;;;;;;;0.22;0.22;;;;;;;13.62;62.32;102301.38;5048724;28;20029;-85
2021/10/18 08:33:25;;;;;;;0.10;0.10;;;;;;;13.59;62.02;102305.84;5051232;28;20029;-85
2021/10/18 08:35:52;;;;;;;0.20;0.20;;;;;;;13.67;61.78;102302.22;5049415;28;20021;-85
2021/10/18 08:38:36;;;;;;;0.20;0.20;;;;;;;13.64;61.54;102294.28;5043131;28;20029;-85
2021/10/18 08:41:16;;;;;;;0.10;0.10;;;;;;;13.69;61.90;102292.44;5039853;28;20095;-84
2021/10/18 08:44:14;;;;;;;0.40;0.40;;;;;;;13.73;62.27;102291.50;5036578;28;20052;-85
2021/10/18 08:46:28;;;;;;;0.65;0.65;;;;;;;13.70;61.31;102294.22;5041438;28;20046;-85
2021/10/18 08:48:58;;;;;;;0.25;0.25;;;;;;;13.75;61.54;102290.59;5047916;28;20044;-86
2021/10/18 08:51:25;;;;;;;0.43;0.43;;;;;;;13.80;61.48;102292.34;5037578;28;20025;-86
2021/10/18 08:53:51;;;;;;;1.27;0.55;;;;;;;13.90;61.54;102286.00;5054365;28;20111;-85
2021/10/18 08:56:18;;;;;;;0.20;0.20;;;;;;;14.03;61.42;102281.41;5054154;28;20032;-86
2021/10/18 08:58:45;;;;;;;1.95;1.85;;;;;;;14.19;61.22;102277.69;5054488;28;20025;-85
2021/10/18 09:01:11;;;;;;;0.20;0.20;;;;;;;14.30;59.78;102269.53;5054391;28;20386;-84
2021/10/18 09:03:38;;;;;;;0.50;0.50;;;;;;;14.49;60.00;102254.19;5049306;28;20041;-85
2021/10/18 09:09:04;;;;;;;0.75;0.75;;;;;;;14.62;59.19;102259.38;5050526;28;20474;-86
2021/10/18 09:11:31;;;;;;;0.38;0.38;;;;;;;14.67;58.63;102253.06;5050544;28;20116;-86
2021/10/18 09:14:06;;;;;;;0.55;0.50;;;;;;;14.78;58.28;102258.25;5050491;28;20029;-86
2021/10/18 09:19:18;;;;;;;0.50;0.50;;;;;;;14.67;58.51;102241.53;5089426;27;20849;-85
2021/10/18 09:27:18;;;;;;;0.10;0.10;;;;;;;14.91;57.47;102244.72;5066965;27;20449;-85
2021/10/18 09:29:49;;;;;;;5.10;1.75;;;;;;;15.02;58.10;102232.97;5066971;27;20060;-85
2021/10/18 09:32:20;;;;;;;2.08;1.73;;;;;;;15.06;58.49;102225.78;5067130;28;20429;-86
2021/10/18 09:34:47;;;;;;;0.20;0.20;;;;;;;15.13;58.12;102230.13;5067005;27;20067;-86
2021/10/18 09:37:15;;;;;;;3.72;1.27;;;;;;;15.18;57.63;102227.38;5067316;28;20020;-86
2021/10/18 09:39:44;;;;;;;0.60;0.60;;;;;;;15.18;56.67;102227.38;5066981;28;20040;-86
2021/10/18 09:42:14;;;;;;;0.98;0.40;;;;;;;15.19;57.52;102237.16;5066909;28;20437;-86
2021/10/18 10:53:45;;;;;;;0.95;0.95;;;;;;;17.02;53.12;102178.06;5060102;28;20029;-86
2021/10/18 10:56:39;;;;;;;1.25;1.15;;;;;;;17.29;53.24;102170.22;5057168;28;20030;-86
2021/10/18 11:09:56;;;;;;;0.10;0.10;;;;;;;17.36;51.45;102174.50;5090689;27;20401;-85
2021/10/18 11:17:55;;;;;;;0.63;0.63;;;;;;;17.59;51.77;102141.69;5068544;28;20771;-84
2021/10/18 11:20:23;;;;;;;1.85;0.47;;;;;;;17.63;52.41;102123.72;5062114;28;20051;-84
2021/10/18 11:22:53;;;;;;;0.30;0.30;;;;;;;17.59;51.58;102124.75;5064007;28;20485;-84
2021/10/18 11:25:24;;;;;;;1.48;1.30;;;;;;;17.60;51.96;102142.59;5053962;28;20029;-84
2021/10/18 11:27:53;;;;;;;0.70;0.70;;;;;;;17.51;51.09;102148.19;5066090;28;20037;-84
2021/10/18 11:30:23;;;;;;;0.10;0.10;;;;;;;17.51;51.22;102141.06;5057815;28;20025;-83
2021/10/18 11:32:56;;;;;;;3.42;1.52;;;;;;;17.50;51.92;102136.59;5057587;28;20033;-84
2021/10/18 11:35:22;;;;;;;0.85;0.85;;;;;;;17.43;51.23;102130.56;5066919;28;20039;-81
2021/10/18 11:40:44;;;;;;;2.83;0.80;;;;;;;17.52;51.24;102131.19;5090073;28;20443;-85
2021/10/18 11:43:14;;;;;;;0.10;0.10;;;;;;;17.46;51.46;102127.78;5069468;28;20064;-84
2021/10/18 11:45:44;;;;;;;0.50;0.50;;;;;;;17.46;52.19;102125.09;5068799;28;20029;-84
2021/10/18 11:48:12;;;;;;;3.50;1.00;;;;;;;17.53;51.53;102112.38;5048370;28;20044;-85
2021/10/18 11:50:43;;;;;;;0.17;0.17;;;;;;;17.49;51.90;102097.34;5049645;28;20025;-84
2021/10/18 11:55:53;;;;;;;1.13;1.13;;;;;;;17.54;51.51;102089.16;5053105;28;20414;-84
2021/10/18 11:58:21;;;;;;;1.38;0.70;;;;;;;17.51;51.32;102089.25;5050026;28;20174;-84
2021/10/18 12:00:55;;;;;;;0.43;0.43;;;;;;;17.62;51.50;102081.78;5049538;28;20120;-84
2021/10/18 12:03:22;;;;;;;0.98;0.98;;;;;;;17.59;52.11;102080.06;5049895;28;20033;-84
2021/10/18 12:05:51;;;;;;;0.30;0.30;;;;;;;17.63;50.77;102072.81;5049705;28;20465;-84
2021/10/18 12:08:19;;;;;;;2.45;1.95;;;;;;;17.65;51.06;102075.47;5049548;28;20469;-84
2021/10/18 12:10:48;;;;;;;0.08;0.08;;;;;;;17.68;50.55;102075.34;5050740;28;20436;-84
2021/10/18 12:21:35;;;;;;;1.77;0.77;;;;;;;17.92;51.83;102057.66;5092114;27;20764;-83
2021/10/18 12:24:04;;;;;;;0.30;0.30;;;;;;;17.88;52.09;102066.69;5090517;28;20384;-81
2021/10/18 12:26:39;;;;;;;0.20;0.20;;;;;;;17.93;51.83;102075.47;5090617;28;20047;-82
2021/10/18 12:29:08;;;;;;;0.10;0.10;;;;;;;18.05;52.06;102077.78;5090980;28;20114;-83
2021/10/18 12:37:01;;;;;;;0.10;0.10;;;;;;;18.24;52.14;102078.09;5070520;28;20800;-82
2021/10/18 12:42:45;;;;;;;0.85;0.85;;;;;;;18.28;52.31;102081.56;5090801;28;20483;-83
2021/10/18 12:45:14;;;;;;;0.10;0.10;;;;;;;18.29;51.92;102080.59;5066015;28;20028;-79
2021/10/18 12:47:47;;;;;;;0.20;0.20;;;;;;;18.31;51.77;102086.81;5048682;28;20036;-82
2021/10/18 12:50:16;;;;;;;0.13;0.13;;;;;;;18.27;50.52;102087.84;5050007;28;20032;-81
2021/10/18 12:52:58;;;;;;;0.10;0.10;;;;;;;18.41;51.42;102092.75;5050479;28;20049;-80
2021/10/18 12:55:37;;;;;;;0.52;0.52;;;;;;;18.47;50.51;102081.81;5049896;28;20034;-80
2021/10/18 12:58:06;;;;;;;0.85;0.85;;;;;;;18.61;51.08;102085.84;5049326;28;20025;-82
2021/10/18 13:00:39;;;;;;;0.10;0.10;;;;;;;18.68;50.57;102085.59;5050179;28;20029;-82
2021/10/18 13:03:18;;;;;;;4.03;0.60;;;;;;;18.92;50.58;102088.38;5049948;28;20492;-81
2021/10/18 13:08:29;;;;;;;0.10;0.10;;;;;;;19.02;50.52;102068.31;5070289;27;20491;-82
2021/10/18 13:10:55;;;;;;;0.40;0.40;;;;;;;19.10;50.58;102064.47;5070612;28;20037;-82
2021/10/18 13:13:24;;;;;;;0.98;0.98;;;;;;;19.21;51.07;102068.50;5057864;28;20136;-83
2021/10/18 13:15:51;;;;;;;0.50;0.50;;;;;;;19.14;50.15;102068.78;5050295;28;20104;-80
2021/10/18 13:18:19;;;;;;;0.30;0.30;;;;;;;19.05;50.68;102076.28;5048088;28;20439;-82
2021/10/18 13:20:46;;;;;;;0.38;0.38;;;;;;;19.06;50.92;102075.31;5049902;28;20041;-82
2021/10/18 13:23:15;;;;;;;0.20;0.20;;;;;;;19.02;50.56;102065.63;5050008;28;20165;-82
2021/10/18 13:25:43;;;;;;;0.57;0.57;;;;;;;18.96;50.20;102071.22;5050187;28;20060;-81
2021/10/18 13:28:11;;;;;;;0.25;0.25;;;;;;;18.86;50.35;102077.81;5049820;28;20450;-80
2021/10/18 13:30:38;;;;;;;1.02;0.68;;;;;;;18.94;50.89;102081.16;5049503;28;20398;-82